sensor_id;sensor_type;location;lat;lon;timestamp;temperature;humidity
59025;DHT22;44806;48.008;13.666;2023-11-18T00:00:14;5.30;99.90
59025;DHT22;44806;48.008;13.666;2023-11-18T00:02:42;5.30;99.90
59025;DHT22;44806;48.008;13.666;2023-11-18T00:05:09;5.40;99.90
59025;DHT22;44806;48.008;13.666;2023-11-18T00:07:36;5.40;99.90
59025;DHT22;44806;48.008;13.666;2023-11-18T00:10:04;5.30;99.90
59025;DHT22;44806;48.008;13.666;2023-11-18T00:12:31;5.40;99.90
59025;DHT22;44806;48.008;13.666;2023-11-18T00:15:00;5.50;99.90
59025;DHT22;44806;48.008;13.666;2023-11-18T00:17:30;5.50;99.90
59025;DHT22;44806;48.008;13.666;2023-11-18T00:19:57;5.60;99.90
59025;DHT22;44806;48.008;13.666;2023-11-18T00:22:24;5.60;99.90
59025;DHT22;44806;48.008;13.666;2023-11-18T00:24:53;5.80;99.90
59025;DHT22;44806;48.008;13.666;2023-11-18T00:27:20;5.70;99.90
59025;DHT22;44806;48.008;13.666;2023-11-18T00:29:50;5.70;99.90
59025;DHT22;44806;48.008;13.666;2023-11-18T00:32:18;5.80;99.90
59025;DHT22;44806;48.008;13.666;2023-11-18T00:34:46;5.70;99.90
59025;DHT22;44806;48.008;13.666;2023-11-18T00:37:13;5.60;99.90
59025;DHT22;44806;48.008;13.666;2023-11-18T00:39:40;5.50;99.90
59025;DHT22;44806;48.008;13.666;2023-11-18T00:42:08;5.50;99.90
59025;DHT22;44806;48.008;13.666;2023-11-18T00:44:35;5.40;99.90
59025;DHT22;44806;48.008;13.666;2023-11-18T00:47:02;5.30;99.90
59025;DHT22;44806;48.008;13.666;2023-11-18T00:49:29;5.30;99.90
59025;DHT22;44806;48.008;13.666;2023-11-18T00:51:57;5.40;99.90
59025;DHT22;44806;48.008;13.666;2023-11-18T00:54:24;5.30;99.90
59025;DHT22;44806;48.008;13.666;2023-11-18T00:56:52;5.30;99.90
59025;DHT22;44806;48.008;13.666;2023-11-18T00:59:19;5.30;99.90
59025;DHT22;44806;48.008;13.666;2023-11-18T01:01:46;5.40;99.90
59025;DHT22;44806;48.008;13.666;2023-11-18T01:04:14;5.40;99.90
59025;DHT22;44806;48.008;13.666;2023-11-18T01:06:42;5.50;99.90
59025;DHT22;44806;48.008;13.666;2023-11-18T01:09:10;5.40;99.90
59025;DHT22;44806;48.008;13.666;2023-11-18T01:11:37;5.40;99.90
59025;DHT22;44806;48.008;13.666;2023-11-18T01:14:04;5.40;99.90
59025;DHT22;44806;48.008;13.666;2023-11-18T01:16:30;5.40;99.90
59025;DHT22;44806;48.008;13.666;2023-11-18T01:18:57;5.30;99.90
59025;DHT22;44806;48.008;13.666;2023-11-18T01:21:25;5.50;99.90
59025;DHT22;44806;48.008;13.666;2023-11-18T01:23:53;5.50;99.90
59025;DHT22;44806;48.008;13.666;2023-11-18T01:26:21;5.50;99.90
59025;DHT22;44806;48.008;13.666;2023-11-18T01:28:48;5.60;99.90
59025;DHT22;44806;48.008;13.666;2023-11-18T01:31:15;5.60;99.90
59025;DHT22;44806;48.008;13.666;2023-11-18T01:33:43;5.60;99.90
59025;DHT22;44806;48.008;13.666;2023-11-18T01:36:11;5.60;99.90
59025;DHT22;44806;48.008;13.666;2023-11-18T01:38:38;5.70;99.90
59025;DHT22;44806;48.008;13.666;2023-11-18T01:41:05;5.80;99.90
59025;DHT22;44806;48.008;13.666;2023-11-18T01:43:34;5.70;99.90
59025;DHT22;44806;48.008;13.666;2023-11-18T01:46:03;5.80;99.90
59025;DHT22;44806;48.008;13.666;2023-11-18T01:48:32;5.80;99.90
59025;DHT22;44806;48.008;13.666;2023-11-18T01:51:01;5.80;99.90
59025;DHT22;44806;48.008;13.666;2023-11-18T01:53:31;5.80;99.90
59025;DHT22;44806;48.008;13.666;2023-11-18T01:55:59;5.90;99.90
59025;DHT22;44806;48.008;13.666;2023-11-18T01:58:26;5.90;99.90
59025;DHT22;44806;48.008;13.666;2023-11-18T02:00:55;5.90;99.90
59025;DHT22;44806;48.008;13.666;2023-11-18T02:03:22;5.80;99.90
59025;DHT22;44806;48.008;13.666;2023-11-18T02:05:49;5.90;99.90
59025;DHT22;44806;48.008;13.666;2023-11-18T02:08:17;5.90;99.90
59025;DHT22;44806;48.008;13.666;2023-11-18T02:10:48;5.90;99.90
59025;DHT22;44806;48.008;13.666;2023-11-18T02:13:22;5.80;99.90
59025;DHT22;44806;48.008;13.666;2023-11-18T02:15:54;5.70;99.90
59025;DHT22;44806;48.008;13.666;2023-11-18T02:18:24;5.80;99.90
59025;DHT22;44806;48.008;13.666;2023-11-18T02:20:53;5.90;99.90
59025;DHT22;44806;48.008;13.666;2023-11-18T02:23:23;5.90;99.90
59025;DHT22;44806;48.008;13.666;2023-11-18T02:25:53;5.80;99.90
59025;DHT22;44806;48.008;13.666;2023-11-18T02:28:21;5.70;99.90
59025;DHT22;44806;48.008;13.666;2023-11-18T02:30:50;5.70;99.90
59025;DHT22;44806;48.008;13.666;2023-11-18T02:33:28;5.60;99.90
59025;DHT22;44806;48.008;13.666;2023-11-18T02:36:05;5.20;99.90
59025;DHT22;44806;48.008;13.666;2023-11-18T02:38:38;5.10;99.90
59025;DHT22;44806;48.008;13.666;2023-11-18T02:41:11;5.00;99.90
59025;DHT22;44806;48.008;13.666;2023-11-18T02:43:39;4.80;99.90
59025;DHT22;44806;48.008;13.666;2023-11-18T02:46:07;4.70;99.90
59025;DHT22;44806;48.008;13.666;2023-11-18T02:48:34;4.80;99.90
59025;DHT22;44806;48.008;13.666;2023-11-18T02:51:03;4.60;99.90
59025;DHT22;44806;48.008;13.666;2023-11-18T02:53:30;4.60;99.90
59025;DHT22;44806;48.008;13.666;2023-11-18T02:55:56;4.50;99.90
59025;DHT22;44806;48.008;13.666;2023-11-18T02:58:29;4.40;99.90
59025;DHT22;44806;48.008;13.666;2023-11-18T03:00:56;4.30;99.90
59025;DHT22;44806;48.008;13.666;2023-11-18T03:03:25;4.30;99.90
59025;DHT22;44806;48.008;13.666;2023-11-18T03:05:53;4.30;99.90
59025;DHT22;44806;48.008;13.666;2023-11-18T03:08:20;4.20;99.90
59025;DHT22;44806;48.008;13.666;2023-11-18T03:10:47;4.20;99.90
59025;DHT22;44806;48.008;13.666;2023-11-18T03:13:18;4.30;99.90
59025;DHT22;44806;48.008;13.666;2023-11-18T03:15:46;4.30;99.90
59025;DHT22;44806;48.008;13.666;2023-11-18T03:18:14;4.40;99.90
59025;DHT22;44806;48.008;13.666;2023-11-18T03:20:41;4.20;99.90
59025;DHT22;44806;48.008;13.666;2023-11-18T03:23:08;4.20;99.90
59025;DHT22;44806;48.008;13.666;2023-11-18T03:25:35;4.20;99.90
59025;DHT22;44806;48.008;13.666;2023-11-18T03:28:03;4.10;99.90
59025;DHT22;44806;48.008;13.666;2023-11-18T03:30:32;3.80;99.90
59025;DHT22;44806;48.008;13.666;2023-11-18T03:33:00;3.80;99.90
59025;DHT22;44806;48.008;13.666;2023-11-18T03:35:27;3.90;99.90
59025;DHT22;44806;48.008;13.666;2023-11-18T03:37:55;3.90;99.90
59025;DHT22;44806;48.008;13.666;2023-11-18T03:40:22;4.00;99.90
59025;DHT22;44806;48.008;13.666;2023-11-18T03:42:49;3.90;99.90
59025;DHT22;44806;48.008;13.666;2023-11-18T03:45:16;3.90;99.90
59025;DHT22;44806;48.008;13.666;2023-11-18T03:47:44;4.00;99.90
59025;DHT22;44806;48.008;13.666;2023-11-18T03:50:12;3.90;99.90
59025;DHT22;44806;48.008;13.666;2023-11-18T03:52:39;3.90;99.90
59025;DHT22;44806;48.008;13.666;2023-11-18T03:55:08;3.80;99.90
59025;DHT22;44806;48.008;13.666;2023-11-18T03:57:35;3.80;99.90
59025;DHT22;44806;48.008;13.666;2023-11-18T04:00:03;3.80;99.90
59025;DHT22;44806;48.008;13.666;2023-11-18T04:02:30;3.80;99.90
59025;DHT22;44806;48.008;13.666;2023-11-18T04:04:56;3.80;99.90
59025;DHT22;44806;48.008;13.666;2023-11-18T04:07:25;3.90;99.90
59025;DHT22;44806;48.008;13.666;2023-11-18T04:09:52;4.10;99.90
59025;DHT22;44806;48.008;13.666;2023-11-18T04:12:19;4.10;99.90
59025;DHT22;44806;48.008;13.666;2023-11-18T04:14:46;4.20;99.90
59025;DHT22;44806;48.008;13.666;2023-11-18T04:17:13;4.20;99.90
59025;DHT22;44806;48.008;13.666;2023-11-18T04:19:40;4.30;99.90
59025;DHT22;44806;48.008;13.666;2023-11-18T04:22:07;4.40;99.90
59025;DHT22;44806;48.008;13.666;2023-11-18T04:24:36;4.20;99.90
59025;DHT22;44806;48.008;13.666;2023-11-18T04:27:03;4.30;99.90
59025;DHT22;44806;48.008;13.666;2023-11-18T04:29:30;4.20;99.90
59025;DHT22;44806;48.008;13.666;2023-11-18T04:31:57;4.20;99.90
59025;DHT22;44806;48.008;13.666;2023-11-18T04:34:25;4.30;99.90
59025;DHT22;44806;48.008;13.666;2023-11-18T04:36:52;4.30;99.90
59025;DHT22;44806;48.008;13.666;2023-11-18T04:39:19;4.30;99.90
59025;DHT22;44806;48.008;13.666;2023-11-18T04:41:48;4.20;99.90
59025;DHT22;44806;48.008;13.666;2023-11-18T04:44:15;4.30;99.90
59025;DHT22;44806;48.008;13.666;2023-11-18T04:46:43;4.30;99.90
59025;DHT22;44806;48.008;13.666;2023-11-18T04:49:10;4.30;99.90
59025;DHT22;44806;48.008;13.666;2023-11-18T04:51:37;4.30;99.90
59025;DHT22;44806;48.008;13.666;2023-11-18T04:54:04;4.30;99.90
59025;DHT22;44806;48.008;13.666;2023-11-18T04:56:33;4.10;99.90
59025;DHT22;44806;48.008;13.666;2023-11-18T04:59:03;4.10;99.90
59025;DHT22;44806;48.008;13.666;2023-11-18T05:01:31;4.10;99.90
59025;DHT22;44806;48.008;13.666;2023-11-18T05:03:58;4.10;99.90
59025;DHT22;44806;48.008;13.666;2023-11-18T05:06:26;4.00;99.90
59025;DHT22;44806;48.008;13.666;2023-11-18T05:08:52;4.00;99.90
59025;DHT22;44806;48.008;13.666;2023-11-18T05:11:20;3.80;99.90
59025;DHT22;44806;48.008;13.666;2023-11-18T05:13:47;3.80;99.90
59025;DHT22;44806;48.008;13.666;2023-11-18T05:16:16;3.70;99.90
59025;DHT22;44806;48.008;13.666;2023-11-18T05:18:43;3.60;99.90
59025;DHT22;44806;48.008;13.666;2023-11-18T05:21:10;3.60;99.90
59025;DHT22;44806;48.008;13.666;2023-11-18T05:23:37;3.50;99.90
59025;DHT22;44806;48.008;13.666;2023-11-18T05:26:04;3.60;99.90
59025;DHT22;44806;48.008;13.666;2023-11-18T05:28:31;3.60;99.90
59025;DHT22;44806;48.008;13.666;2023-11-18T05:30:59;3.60;99.90
59025;DHT22;44806;48.008;13.666;2023-11-18T05:33:28;3.60;99.90
59025;DHT22;44806;48.008;13.666;2023-11-18T05:35:55;3.50;99.90
59025;DHT22;44806;48.008;13.666;2023-11-18T05:38:23;3.60;99.90
59025;DHT22;44806;48.008;13.666;2023-11-18T05:40:53;3.60;99.90
59025;DHT22;44806;48.008;13.666;2023-11-18T05:43:23;3.70;99.90
59025;DHT22;44806;48.008;13.666;2023-11-18T05:45:51;3.70;99.90
59025;DHT22;44806;48.008;13.666;2023-11-18T05:48:52;3.60;99.90
59025;DHT22;44806;48.008;13.666;2023-11-18T05:51:21;3.70;99.90
59025;DHT22;44806;48.008;13.666;2023-11-18T05:53:48;3.50;99.90
59025;DHT22;44806;48.008;13.666;2023-11-18T05:56:16;3.50;99.90
59025;DHT22;44806;48.008;13.666;2023-11-18T05:58:43;3.50;99.90
59025;DHT22;44806;48.008;13.666;2023-11-18T06:01:10;3.50;99.90
59025;DHT22;44806;48.008;13.666;2023-11-18T06:03:38;3.50;99.90
59025;DHT22;44806;48.008;13.666;2023-11-18T06:06:08;3.50;99.90
59025;DHT22;44806;48.008;13.666;2023-11-18T06:08:36;3.30;99.90
59025;DHT22;44806;48.008;13.666;2023-11-18T06:11:04;3.40;99.90
59025;DHT22;44806;48.008;13.666;2023-11-18T06:13:39;3.40;99.90
59025;DHT22;44806;48.008;13.666;2023-11-18T06:16:09;3.40;99.90
59025;DHT22;44806;48.008;13.666;2023-11-18T06:18:40;3.40;99.90
59025;DHT22;44806;48.008;13.666;2023-11-18T06:21:12;3.40;99.90
59025;DHT22;44806;48.008;13.666;2023-11-18T06:23:40;3.30;99.90
59025;DHT22;44806;48.008;13.666;2023-11-18T06:26:07;3.40;99.90
59025;DHT22;44806;48.008;13.666;2023-11-18T06:28:37;3.50;99.90
59025;DHT22;44806;48.008;13.666;2023-11-18T06:31:05;3.50;99.90
59025;DHT22;44806;48.008;13.666;2023-11-18T06:33:37;3.60;99.90
59025;DHT22;44806;48.008;13.666;2023-11-18T06:36:06;3.70;99.90
59025;DHT22;44806;48.008;13.666;2023-11-18T06:38:35;3.60;99.90
59025;DHT22;44806;48.008;13.666;2023-11-18T06:41:02;3.60;99.90
59025;DHT22;44806;48.008;13.666;2023-11-18T06:43:31;3.50;99.90
59025;DHT22;44806;48.008;13.666;2023-11-18T06:46:11;3.60;99.90
59025;DHT22;44806;48.008;13.666;2023-11-18T06:48:40;3.60;99.90
59025;DHT22;44806;48.008;13.666;2023-11-18T06:51:07;3.50;99.90
59025;DHT22;44806;48.008;13.666;2023-11-18T06:53:36;3.50;99.90
59025;DHT22;44806;48.008;13.666;2023-11-18T06:56:03;3.60;99.90
59025;DHT22;44806;48.008;13.666;2023-11-18T06:58:30;3.50;99.90
59025;DHT22;44806;48.008;13.666;2023-11-18T07:00:57;3.50;99.90
59025;DHT22;44806;48.008;13.666;2023-11-18T07:03:24;3.50;99.90
59025;DHT22;44806;48.008;13.666;2023-11-18T07:05:51;3.50;99.90
59025;DHT22;44806;48.008;13.666;2023-11-18T07:08:20;3.50;99.90
59025;DHT22;44806;48.008;13.666;2023-11-18T07:10:52;3.50;99.90
59025;DHT22;44806;48.008;13.666;2023-11-18T07:13:22;3.60;99.90
59025;DHT22;44806;48.008;13.666;2023-11-18T07:15:49;3.60;99.90
59025;DHT22;44806;48.008;13.666;2023-11-18T07:18:17;3.70;99.90
59025;DHT22;44806;48.008;13.666;2023-11-18T07:20:47;3.60;99.90
59025;DHT22;44806;48.008;13.666;2023-11-18T07:23:14;3.50;99.90
59025;DHT22;44806;48.008;13.666;2023-11-18T07:25:43;3.40;99.90
59025;DHT22;44806;48.008;13.666;2023-11-18T07:28:12;3.40;99.90
59025;DHT22;44806;48.008;13.666;2023-11-18T07:30:41;3.40;99.90
59025;DHT22;44806;48.008;13.666;2023-11-18T07:33:08;3.40;99.90
59025;DHT22;44806;48.008;13.666;2023-11-18T07:35:35;3.40;99.90
59025;DHT22;44806;48.008;13.666;2023-11-18T07:38:02;3.30;99.90
59025;DHT22;44806;48.008;13.666;2023-11-18T07:40:29;3.30;99.90
59025;DHT22;44806;48.008;13.666;2023-11-18T07:42:59;3.30;99.90
59025;DHT22;44806;48.008;13.666;2023-11-18T07:45:34;3.30;99.90
59025;DHT22;44806;48.008;13.666;2023-11-18T07:48:03;3.20;99.90
59025;DHT22;44806;48.008;13.666;2023-11-18T07:50:33;3.20;99.90
59025;DHT22;44806;48.008;13.666;2023-11-18T07:52:59;3.20;99.90
59025;DHT22;44806;48.008;13.666;2023-11-18T07:55:26;3.20;99.90
59025;DHT22;44806;48.008;13.666;2023-11-18T07:57:54;3.20;99.90
59025;DHT22;44806;48.008;13.666;2023-11-18T08:00:21;3.20;99.90
59025;DHT22;44806;48.008;13.666;2023-11-18T08:02:50;3.20;99.90
59025;DHT22;44806;48.008;13.666;2023-11-18T08:05:21;3.20;99.90
59025;DHT22;44806;48.008;13.666;2023-11-18T08:07:48;3.20;99.90
59025;DHT22;44806;48.008;13.666;2023-11-18T08:10:16;3.20;99.90
59025;DHT22;44806;48.008;13.666;2023-11-18T08:12:44;3.30;99.90
59025;DHT22;44806;48.008;13.666;2023-11-18T08:15:12;3.30;99.90
59025;DHT22;44806;48.008;13.666;2023-11-18T08:17:39;3.20;99.90
59025;DHT22;44806;48.008;13.666;2023-11-18T08:20:08;3.30;99.90
59025;DHT22;44806;48.008;13.666;2023-11-18T08:22:40;3.30;99.90
59025;DHT22;44806;48.008;13.666;2023-11-18T08:25:08;3.30;99.90
59025;DHT22;44806;48.008;13.666;2023-11-18T08:27:35;3.40;99.90
59025;DHT22;44806;48.008;13.666;2023-11-18T08:30:02;3.40;99.90
59025;DHT22;44806;48.008;13.666;2023-11-18T08:32:31;3.40;99.90
59025;DHT22;44806;48.008;13.666;2023-11-18T08:34:58;3.50;99.90
59025;DHT22;44806;48.008;13.666;2023-11-18T08:37:27;3.60;99.90
59025;DHT22;44806;48.008;13.666;2023-11-18T08:39:54;3.60;99.90
59025;DHT22;44806;48.008;13.666;2023-11-18T08:42:21;3.70;99.90
59025;DHT22;44806;48.008;13.666;2023-11-18T08:44:50;3.80;99.90
59025;DHT22;44806;48.008;13.666;2023-11-18T08:47:17;3.80;99.90
59025;DHT22;44806;48.008;13.666;2023-11-18T08:49:44;3.90;99.90
59025;DHT22;44806;48.008;13.666;2023-11-18T08:52:12;4.00;99.90
59025;DHT22;44806;48.008;13.666;2023-11-18T08:54:40;4.00;99.90
59025;DHT22;44806;48.008;13.666;2023-11-18T08:57:27;4.00;99.90
59025;DHT22;44806;48.008;13.666;2023-11-18T09:00:14;4.00;99.90
59025;DHT22;44806;48.008;13.666;2023-11-18T09:03:02;3.90;99.90
59025;DHT22;44806;48.008;13.666;2023-11-18T09:05:32;4.00;99.90
59025;DHT22;44806;48.008;13.666;2023-11-18T09:08:01;4.10;99.90
59025;DHT22;44806;48.008;13.666;2023-11-18T09:10:33;4.10;99.90
59025;DHT22;44806;48.008;13.666;2023-11-18T09:13:00;4.20;99.90
59025;DHT22;44806;48.008;13.666;2023-11-18T09:15:29;4.20;99.90
59025;DHT22;44806;48.008;13.666;2023-11-18T09:17:57;4.40;99.90
59025;DHT22;44806;48.008;13.666;2023-11-18T09:20:25;4.50;99.90
59025;DHT22;44806;48.008;13.666;2023-11-18T09:22:52;4.50;99.90
59025;DHT22;44806;48.008;13.666;2023-11-18T09:25:21;4.50;99.90
59025;DHT22;44806;48.008;13.666;2023-11-18T09:27:50;4.60;99.90
59025;DHT22;44806;48.008;13.666;2023-11-18T09:30:17;4.60;99.90
59025;DHT22;44806;48.008;13.666;2023-11-18T09:32:44;4.60;99.90
59025;DHT22;44806;48.008;13.666;2023-11-18T09:35:13;4.60;99.90
59025;DHT22;44806;48.008;13.666;2023-11-18T09:37:40;4.70;99.90
59025;DHT22;44806;48.008;13.666;2023-11-18T09:40:09;4.60;99.90
59025;DHT22;44806;48.008;13.666;2023-11-18T09:42:38;4.50;99.90
59025;DHT22;44806;48.008;13.666;2023-11-18T09:45:07;4.60;99.90
59025;DHT22;44806;48.008;13.666;2023-11-18T09:47:43;4.60;99.90
59025;DHT22;44806;48.008;13.666;2023-11-18T09:50:16;4.60;99.90
59025;DHT22;44806;48.008;13.666;2023-11-18T09:52:48;4.70;99.90
59025;DHT22;44806;48.008;13.666;2023-11-18T09:55:25;4.60;99.90
59025;DHT22;44806;48.008;13.666;2023-11-18T09:57:58;4.60;99.90
59025;DHT22;44806;48.008;13.666;2023-11-18T10:00:31;4.70;99.90
59025;DHT22;44806;48.008;13.666;2023-11-18T10:03:00;4.80;99.90
59025;DHT22;44806;48.008;13.666;2023-11-18T10:05:28;4.80;99.90
59025;DHT22;44806;48.008;13.666;2023-11-18T10:07:56;4.90;99.90
59025;DHT22;44806;48.008;13.666;2023-11-18T10:10:24;4.80;99.90
59025;DHT22;44806;48.008;13.666;2023-11-18T10:12:56;4.80;99.90
59025;DHT22;44806;48.008;13.666;2023-11-18T10:15:25;4.70;99.90
59025;DHT22;44806;48.008;13.666;2023-11-18T10:17:54;4.60;99.90
59025;DHT22;44806;48.008;13.666;2023-11-18T10:20:43;4.70;99.90
59025;DHT22;44806;48.008;13.666;2023-11-18T10:23:11;4.90;99.90
59025;DHT22;44806;48.008;13.666;2023-11-18T10:25:45;4.80;99.90
59025;DHT22;44806;48.008;13.666;2023-11-18T10:28:23;4.80;99.90
59025;DHT22;44806;48.008;13.666;2023-11-18T10:30:53;4.90;99.90
59025;DHT22;44806;48.008;13.666;2023-11-18T10:33:24;4.90;99.90
59025;DHT22;44806;48.008;13.666;2023-11-18T10:35:56;5.00;99.90
59025;DHT22;44806;48.008;13.666;2023-11-18T10:38:23;5.00;99.90
59025;DHT22;44806;48.008;13.666;2023-11-18T10:40:55;5.00;99.90
59025;DHT22;44806;48.008;13.666;2023-11-18T10:43:23;5.10;99.90
59025;DHT22;44806;48.008;13.666;2023-11-18T10:45:52;5.20;99.90
59025;DHT22;44806;48.008;13.666;2023-11-18T10:48:19;5.20;99.90
59025;DHT22;44806;48.008;13.666;2023-11-18T10:50:49;5.20;99.90
59025;DHT22;44806;48.008;13.666;2023-11-18T10:53:18;5.20;99.90
59025;DHT22;44806;48.008;13.666;2023-11-18T10:55:47;5.30;99.90
59025;DHT22;44806;48.008;13.666;2023-11-18T10:58:16;5.50;99.90
59025;DHT22;44806;48.008;13.666;2023-11-18T11:00:47;5.50;99.90
59025;DHT22;44806;48.008;13.666;2023-11-18T11:03:15;5.60;99.90
59025;DHT22;44806;48.008;13.666;2023-11-18T11:05:44;5.60;99.90
59025;DHT22;44806;48.008;13.666;2023-11-18T11:08:14;5.60;99.90
59025;DHT22;44806;48.008;13.666;2023-11-18T11:10:42;5.60;99.90
59025;DHT22;44806;48.008;13.666;2023-11-18T11:13:10;5.60;99.90
59025;DHT22;44806;48.008;13.666;2023-11-18T11:15:41;5.60;99.90
59025;DHT22;44806;48.008;13.666;2023-11-18T11:18:20;5.60;99.90
59025;DHT22;44806;48.008;13.666;2023-11-18T11:20:59;5.50;99.90
59025;DHT22;44806;48.008;13.666;2023-11-18T11:23:39;5.50;99.90
59025;DHT22;44806;48.008;13.666;2023-11-18T11:26:21;5.50;99.90
59025;DHT22;44806;48.008;13.666;2023-11-18T11:29:07;5.60;99.90
59025;DHT22;44806;48.008;13.666;2023-11-18T11:31:39;5.60;99.90
59025;DHT22;44806;48.008;13.666;2023-11-18T11:34:14;5.60;99.90
59025;DHT22;44806;48.008;13.666;2023-11-18T11:36:46;5.70;99.90
59025;DHT22;44806;48.008;13.666;2023-11-18T11:39:18;5.70;99.90
59025;DHT22;44806;48.008;13.666;2023-11-18T11:41:53;5.90;99.90
59025;DHT22;44806;48.008;13.666;2023-11-18T11:44:22;6.00;99.90
59025;DHT22;44806;48.008;13.666;2023-11-18T11:46:54;6.10;99.90
59025;DHT22;44806;48.008;13.666;2023-11-18T11:49:26;6.10;99.90
59025;DHT22;44806;48.008;13.666;2023-11-18T11:52:00;6.20;99.90
59025;DHT22;44806;48.008;13.666;2023-11-18T11:54:35;6.30;99.90
59025;DHT22;44806;48.008;13.666;2023-11-18T11:57:04;6.30;99.90
59025;DHT22;44806;48.008;13.666;2023-11-18T11:59:53;6.30;99.90
59025;DHT22;44806;48.008;13.666;2023-11-18T12:02:22;6.20;99.90
59025;DHT22;44806;48.008;13.666;2023-11-18T12:04:51;6.10;99.90
59025;DHT22;44806;48.008;13.666;2023-11-18T12:07:20;6.20;99.90
59025;DHT22;44806;48.008;13.666;2023-11-18T12:09:50;6.20;99.90
59025;DHT22;44806;48.008;13.666;2023-11-18T12:12:20;6.40;99.90
59025;DHT22;44806;48.008;13.666;2023-11-18T12:14:50;6.50;99.90
59025;DHT22;44806;48.008;13.666;2023-11-18T12:17:18;6.50;99.90
59025;DHT22;44806;48.008;13.666;2023-11-18T12:19:48;6.50;99.90
59025;DHT22;44806;48.008;13.666;2023-11-18T12:22:19;6.50;99.90
59025;DHT22;44806;48.008;13.666;2023-11-18T12:28:07;6.60;99.90
59025;DHT22;44806;48.008;13.666;2023-11-18T12:30:41;6.60;99.90
59025;DHT22;44806;48.008;13.666;2023-11-18T12:33:18;6.60;99.90
59025;DHT22;44806;48.008;13.666;2023-11-18T12:42:02;6.80;99.90
59025;DHT22;44806;48.008;13.666;2023-11-18T12:44:37;6.70;99.90
59025;DHT22;44806;48.008;13.666;2023-11-18T12:47:05;6.80;99.90
59025;DHT22;44806;48.008;13.666;2023-11-18T12:49:40;6.90;99.90
59025;DHT22;44806;48.008;13.666;2023-11-18T12:52:08;6.90;99.90
59025;DHT22;44806;48.008;13.666;2023-11-18T12:54:37;6.90;99.90
59025;DHT22;44806;48.008;13.666;2023-11-18T12:57:07;7.00;99.90
59025;DHT22;44806;48.008;13.666;2023-11-18T12:59:36;7.00;99.90
59025;DHT22;44806;48.008;13.666;2023-11-18T13:02:07;7.10;99.90
59025;DHT22;44806;48.008;13.666;2023-11-18T13:04:39;7.10;99.90
59025;DHT22;44806;48.008;13.666;2023-11-18T13:07:06;7.10;99.90
59025;DHT22;44806;48.008;13.666;2023-11-18T13:09:34;7.00;99.90
59025;DHT22;44806;48.008;13.666;2023-11-18T13:12:03;7.10;99.90
59025;DHT22;44806;48.008;13.666;2023-11-18T13:14:32;7.00;99.90
59025;DHT22;44806;48.008;13.666;2023-11-18T13:17:03;7.10;99.90
59025;DHT22;44806;48.008;13.666;2023-11-18T13:19:31;7.10;99.90
59025;DHT22;44806;48.008;13.666;2023-11-18T13:22:01;7.20;99.90
59025;DHT22;44806;48.008;13.666;2023-11-18T13:24:29;7.20;99.90
59025;DHT22;44806;48.008;13.666;2023-11-18T13:26:57;7.30;99.90
59025;DHT22;44806;48.008;13.666;2023-11-18T13:29:24;7.20;99.90
59025;DHT22;44806;48.008;13.666;2023-11-18T13:31:52;7.10;99.90
59025;DHT22;44806;48.008;13.666;2023-11-18T13:34:20;7.20;99.90
59025;DHT22;44806;48.008;13.666;2023-11-18T13:36:47;7.20;99.90
59025;DHT22;44806;48.008;13.666;2023-11-18T13:39:16;7.30;99.90
59025;DHT22;44806;48.008;13.666;2023-11-18T13:41:43;7.40;99.90
59025;DHT22;44806;48.008;13.666;2023-11-18T13:44:11;7.40;99.90
59025;DHT22;44806;48.008;13.666;2023-11-18T13:46:39;7.40;99.90
59025;DHT22;44806;48.008;13.666;2023-11-18T13:49:06;7.40;99.90
59025;DHT22;44806;48.008;13.666;2023-11-18T13:51:35;7.40;99.90
59025;DHT22;44806;48.008;13.666;2023-11-18T13:54:03;7.20;99.90
59025;DHT22;44806;48.008;13.666;2023-11-18T13:56:30;7.40;99.90
59025;DHT22;44806;48.008;13.666;2023-11-18T13:58:58;7.40;99.90
59025;DHT22;44806;48.008;13.666;2023-11-18T14:01:25;7.40;99.90
59025;DHT22;44806;48.008;13.666;2023-11-18T14:03:53;7.40;99.90
59025;DHT22;44806;48.008;13.666;2023-11-18T14:06:22;7.30;99.90
59025;DHT22;44806;48.008;13.666;2023-11-18T14:08:50;7.30;99.90
59025;DHT22;44806;48.008;13.666;2023-11-18T14:11:17;7.40;99.90
59025;DHT22;44806;48.008;13.666;2023-11-18T14:13:45;7.30;99.90
59025;DHT22;44806;48.008;13.666;2023-11-18T14:16:12;7.30;99.90
59025;DHT22;44806;48.008;13.666;2023-11-18T14:18:42;7.40;99.90
59025;DHT22;44806;48.008;13.666;2023-11-18T14:21:09;7.40;99.90
59025;DHT22;44806;48.008;13.666;2023-11-18T14:23:36;7.50;99.90
59025;DHT22;44806;48.008;13.666;2023-11-18T14:26:07;7.40;99.90
59025;DHT22;44806;48.008;13.666;2023-11-18T14:28:34;7.40;99.90
59025;DHT22;44806;48.008;13.666;2023-11-18T14:31:01;7.40;99.90
59025;DHT22;44806;48.008;13.666;2023-11-18T14:33:30;7.30;99.90
59025;DHT22;44806;48.008;13.666;2023-11-18T14:35:59;7.30;99.90
59025;DHT22;44806;48.008;13.666;2023-11-18T14:38:26;7.30;99.90
59025;DHT22;44806;48.008;13.666;2023-11-18T14:40:53;7.40;99.90
59025;DHT22;44806;48.008;13.666;2023-11-18T14:43:22;7.40;99.90
59025;DHT22;44806;48.008;13.666;2023-11-18T14:45:49;7.50;99.90
59025;DHT22;44806;48.008;13.666;2023-11-18T14:48:15;7.50;99.90
59025;DHT22;44806;48.008;13.666;2023-11-18T14:50:42;7.50;99.90
59025;DHT22;44806;48.008;13.666;2023-11-18T14:53:10;7.60;99.90
59025;DHT22;44806;48.008;13.666;2023-11-18T14:55:37;7.50;99.90
59025;DHT22;44806;48.008;13.666;2023-11-18T14:58:04;7.50;99.90
59025;DHT22;44806;48.008;13.666;2023-11-18T15:00:34;7.40;99.90
59025;DHT22;44806;48.008;13.666;2023-11-18T15:03:01;7.40;99.90
59025;DHT22;44806;48.008;13.666;2023-11-18T15:05:28;7.40;99.90
59025;DHT22;44806;48.008;13.666;2023-11-18T15:07:57;7.50;99.90
59025;DHT22;44806;48.008;13.666;2023-11-18T15:10:26;7.50;99.90
59025;DHT22;44806;48.008;13.666;2023-11-18T15:12:55;7.50;99.90
59025;DHT22;44806;48.008;13.666;2023-11-18T15:15:24;7.50;99.90
59025;DHT22;44806;48.008;13.666;2023-11-18T15:17:59;7.50;99.90
59025;DHT22;44806;48.008;13.666;2023-11-18T15:20:29;7.40;99.90
59025;DHT22;44806;48.008;13.666;2023-11-18T15:22:56;7.40;99.90
59025;DHT22;44806;48.008;13.666;2023-11-18T15:25:23;7.30;99.90
59025;DHT22;44806;48.008;13.666;2023-11-18T15:27:50;7.20;99.90
59025;DHT22;44806;48.008;13.666;2023-11-18T15:30:17;7.20;99.90
59025;DHT22;44806;48.008;13.666;2023-11-18T15:32:45;7.10;99.90
59025;DHT22;44806;48.008;13.666;2023-11-18T15:35:14;7.00;99.90
59025;DHT22;44806;48.008;13.666;2023-11-18T15:37:42;7.00;99.90
59025;DHT22;44806;48.008;13.666;2023-11-18T15:40:14;6.90;99.90
59025;DHT22;44806;48.008;13.666;2023-11-18T15:42:45;6.80;99.90
59025;DHT22;44806;48.008;13.666;2023-11-18T15:45:15;6.80;99.90
59025;DHT22;44806;48.008;13.666;2023-11-18T15:47:42;6.70;99.90
59025;DHT22;44806;48.008;13.666;2023-11-18T15:50:11;6.60;99.90